Grundy, Virginia
Current Conditions -  °F | °C
As of 4:35 AM on Saturday 25 Oct 2014 (Local Time) from KJFZ Reporting Station
Clear Clear  
Wind Chill: 44°   Ceiling: Unl
Heat Index: 44°   Visibility: 10mi
Dew Point: 40°   Wind: 0mph
Humidity: 85%   Direction: NA
Pressure: 30.07"   Gusts: NA
Location:  37.28°N, 82.1°W
Report Text: KJFZ 250835Z AUTO 00000KT 10SM CLR 07/05 A3007 RMK AO2 T00690046
Loading
Personal Weather Stations






























Interactive Weather Map
Tropical Storm Tracking
New forecast layout! Learn more

10-Day Weather Forecast

Advertisements
Track Severe Weather on mobile